sensor_id;sensor_type;location;lat;lon;timestamp;temperature;humidity
33741;DHT22;20065;48.380;10.892;2022-09-01T00:01:54;16.50;99.90
33741;DHT22;20065;48.380;10.892;2022-09-01T00:04:41;16.40;99.90
33741;DHT22;20065;48.380;10.892;2022-09-01T00:07:29;16.50;99.90
33741;DHT22;20065;48.380;10.892;2022-09-01T00:10:16;16.50;99.90
33741;DHT22;20065;48.380;10.892;2022-09-01T00:13:02;16.50;99.90
33741;DHT22;20065;48.380;10.892;2022-09-01T00:15:51;16.50;99.90
33741;DHT22;20065;48.380;10.892;2022-09-01T00:18:38;16.50;99.90
33741;DHT22;20065;48.380;10.892;2022-09-01T00:21:36;16.70;99.90
33741;DHT22;20065;48.380;10.892;2022-09-01T00:24:22;16.50;99.90
33741;DHT22;20065;48.380;10.892;2022-09-01T00:27:10;16.50;99.90
33741;DHT22;20065;48.380;10.892;2022-09-01T00:29:57;16.60;99.90
33741;DHT22;20065;48.380;10.892;2022-09-01T00:32:44;16.50;99.90
33741;DHT22;20065;48.380;10.892;2022-09-01T00:35:31;16.60;99.90
33741;DHT22;20065;48.380;10.892;2022-09-01T00:38:17;16.60;99.90
33741;DHT22;20065;48.380;10.892;2022-09-01T00:41:04;16.40;99.90
33741;DHT22;20065;48.380;10.892;2022-09-01T00:43:58;16.70;99.90
33741;DHT22;20065;48.380;10.892;2022-09-01T00:46:47;16.60;99.90
33741;DHT22;20065;48.380;10.892;2022-09-01T00:49:44;16.60;99.90
33741;DHT22;20065;48.380;10.892;2022-09-01T00:52:35;16.70;99.90
33741;DHT22;20065;48.380;10.892;2022-09-01T00:55:27;16.60;99.90
33741;DHT22;20065;48.380;10.892;2022-09-01T00:58:14;16.50;99.90
33741;DHT22;20065;48.380;10.892;2022-09-01T01:01:00;16.50;99.90
33741;DHT22;20065;48.380;10.892;2022-09-01T01:03:47;16.50;99.90
33741;DHT22;20065;48.380;10.892;2022-09-01T01:06:33;16.50;99.90
33741;DHT22;20065;48.380;10.892;2022-09-01T01:09:21;16.50;99.90
33741;DHT22;20065;48.380;10.892;2022-09-01T01:12:07;16.50;99.90
33741;DHT22;20065;48.380;10.892;2022-09-01T01:14:57;16.30;99.90
33741;DHT22;20065;48.380;10.892;2022-09-01T01:17:43;16.40;99.90
33741;DHT22;20065;48.380;10.892;2022-09-01T01:20:32;16.50;99.90
33741;DHT22;20065;48.380;10.892;2022-09-01T01:23:46;16.40;99.90
33741;DHT22;20065;48.380;10.892;2022-09-01T01:26:35;16.40;99.90
33741;DHT22;20065;48.380;10.892;2022-09-01T01:29:22;16.40;99.90
33741;DHT22;20065;48.380;10.892;2022-09-01T01:32:12;16.10;99.90
33741;DHT22;20065;48.380;10.892;2022-09-01T01:35:00;16.50;99.90
33741;DHT22;20065;48.380;10.892;2022-09-01T01:37:48;16.50;99.90
33741;DHT22;20065;48.380;10.892;2022-09-01T01:40:37;16.40;99.90
33741;DHT22;20065;48.380;10.892;2022-09-01T01:43:23;16.40;99.90
33741;DHT22;20065;48.380;10.892;2022-09-01T01:46:10;16.40;99.90
33741;DHT22;20065;48.380;10.892;2022-09-01T01:48:59;16.30;99.90
33741;DHT22;20065;48.380;10.892;2022-09-01T01:51:52;16.40;99.90
33741;DHT22;20065;48.380;10.892;2022-09-01T01:54:42;16.30;99.90
33741;DHT22;20065;48.380;10.892;2022-09-01T01:57:31;16.30;99.90
33741;DHT22;20065;48.380;10.892;2022-09-01T02:00:24;16.30;99.90
33741;DHT22;20065;48.380;10.892;2022-09-01T02:03:13;16.30;99.90
33741;DHT22;20065;48.380;10.892;2022-09-01T02:06:08;16.40;99.90
33741;DHT22;20065;48.380;10.892;2022-09-01T02:08:56;16.40;99.90
33741;DHT22;20065;48.380;10.892;2022-09-01T02:11:42;16.30;99.90
33741;DHT22;20065;48.380;10.892;2022-09-01T02:14:31;16.30;99.90
33741;DHT22;20065;48.380;10.892;2022-09-01T02:17:17;16.30;99.90
33741;DHT22;20065;48.380;10.892;2022-09-01T02:20:04;16.40;99.90
33741;DHT22;20065;48.380;10.892;2022-09-01T02:22:50;16.30;99.90
33741;DHT22;20065;48.380;10.892;2022-09-01T02:25:42;16.30;99.90
33741;DHT22;20065;48.380;10.892;2022-09-01T02:28:32;16.20;99.90
33741;DHT22;20065;48.380;10.892;2022-09-01T02:31:23;16.10;99.90
33741;DHT22;20065;48.380;10.892;2022-09-01T02:34:10;16.00;99.90
33741;DHT22;20065;48.380;10.892;2022-09-01T02:36:58;16.00;99.90
33741;DHT22;20065;48.380;10.892;2022-09-01T02:39:44;16.00;99.90
33741;DHT22;20065;48.380;10.892;2022-09-01T02:42:31;16.00;99.90
33741;DHT22;20065;48.380;10.892;2022-09-01T02:45:17;16.00;99.90
33741;DHT22;20065;48.380;10.892;2022-09-01T02:48:05;16.10;99.90
33741;DHT22;20065;48.380;10.892;2022-09-01T02:50:55;16.10;99.90
33741;DHT22;20065;48.380;10.892;2022-09-01T02:53:45;16.10;99.90
33741;DHT22;20065;48.380;10.892;2022-09-01T02:56:37;16.10;99.90
33741;DHT22;20065;48.380;10.892;2022-09-01T02:59:25;16.10;99.90
33741;DHT22;20065;48.380;10.892;2022-09-01T03:02:13;16.10;99.90
33741;DHT22;20065;48.380;10.892;2022-09-01T03:05:00;16.20;99.90
33741;DHT22;20065;48.380;10.892;2022-09-01T03:07:48;16.30;99.90
33741;DHT22;20065;48.380;10.892;2022-09-01T03:10:40;16.20;99.90
33741;DHT22;20065;48.380;10.892;2022-09-01T03:13:26;16.10;99.90
33741;DHT22;20065;48.380;10.892;2022-09-01T03:16:14;16.10;99.90
33741;DHT22;20065;48.380;10.892;2022-09-01T03:19:01;16.00;99.90
33741;DHT22;20065;48.380;10.892;2022-09-01T03:21:48;16.10;99.90
33741;DHT22;20065;48.380;10.892;2022-09-01T03:24:39;16.10;99.90
33741;DHT22;20065;48.380;10.892;2022-09-01T03:27:25;16.10;99.90
33741;DHT22;20065;48.380;10.892;2022-09-01T03:30:12;16.10;99.90
33741;DHT22;20065;48.380;10.892;2022-09-01T03:33:00;16.10;99.90
33741;DHT22;20065;48.380;10.892;2022-09-01T03:35:47;16.20;99.90
33741;DHT22;20065;48.380;10.892;2022-09-01T03:38:33;16.10;99.90
33741;DHT22;20065;48.380;10.892;2022-09-01T03:41:24;16.20;99.90
33741;DHT22;20065;48.380;10.892;2022-09-01T03:44:12;16.20;99.90
33741;DHT22;20065;48.380;10.892;2022-09-01T03:47:01;16.00;99.90
33741;DHT22;20065;48.380;10.892;2022-09-01T03:49:47;16.00;99.90
33741;DHT22;20065;48.380;10.892;2022-09-01T03:52:34;16.10;99.90
33741;DHT22;20065;48.380;10.892;2022-09-01T03:55:28;16.00;99.90
33741;DHT22;20065;48.380;10.892;2022-09-01T03:58:17;16.00;99.90
33741;DHT22;20065;48.380;10.892;2022-09-01T04:01:06;16.00;99.90
33741;DHT22;20065;48.380;10.892;2022-09-01T04:03:53;15.90;99.90
33741;DHT22;20065;48.380;10.892;2022-09-01T04:06:45;16.00;99.90
33741;DHT22;20065;48.380;10.892;2022-09-01T04:09:33;16.00;99.90
33741;DHT22;20065;48.380;10.892;2022-09-01T04:12:20;16.00;99.90
33741;DHT22;20065;48.380;10.892;2022-09-01T04:15:12;15.90;99.90
33741;DHT22;20065;48.380;10.892;2022-09-01T04:17:59;15.90;99.90
33741;DHT22;20065;48.380;10.892;2022-09-01T04:20:57;16.00;99.90
33741;DHT22;20065;48.380;10.892;2022-09-01T04:23:44;16.00;99.90
33741;DHT22;20065;48.380;10.892;2022-09-01T04:26:31;15.90;99.90
33741;DHT22;20065;48.380;10.892;2022-09-01T04:29:20;15.80;99.90
33741;DHT22;20065;48.380;10.892;2022-09-01T04:32:12;15.80;99.90
33741;DHT22;20065;48.380;10.892;2022-09-01T04:35:04;15.80;99.90
33741;DHT22;20065;48.380;10.892;2022-09-01T04:37:50;15.80;99.90
33741;DHT22;20065;48.380;10.892;2022-09-01T04:40:37;15.80;99.90
33741;DHT22;20065;48.380;10.892;2022-09-01T04:43:24;15.80;99.90
33741;DHT22;20065;48.380;10.892;2022-09-01T04:46:11;15.90;99.90
33741;DHT22;20065;48.380;10.892;2022-09-01T04:48:59;15.90;99.90
33741;DHT22;20065;48.380;10.892;2022-09-01T04:51:50;15.90;99.90
33741;DHT22;20065;48.380;10.892;2022-09-01T04:54:37;15.90;99.90
33741;DHT22;20065;48.380;10.892;2022-09-01T04:57:24;15.90;99.90
33741;DHT22;20065;48.380;10.892;2022-09-01T05:00:15;15.80;99.90
33741;DHT22;20065;48.380;10.892;2022-09-01T05:03:07;15.80;99.90
33741;DHT22;20065;48.380;10.892;2022-09-01T05:06:15;15.80;99.90
33741;DHT22;20065;48.380;10.892;2022-09-01T05:09:09;15.80;99.90
33741;DHT22;20065;48.380;10.892;2022-09-01T05:12:14;15.80;99.90
33741;DHT22;20065;48.380;10.892;2022-09-01T05:15:02;15.90;99.90
33741;DHT22;20065;48.380;10.892;2022-09-01T05:17:51;15.90;99.90
33741;DHT22;20065;48.380;10.892;2022-09-01T05:20:40;15.80;99.90
33741;DHT22;20065;48.380;10.892;2022-09-01T05:23:26;15.70;99.90
33741;DHT22;20065;48.380;10.892;2022-09-01T05:26:19;15.80;99.90
33741;DHT22;20065;48.380;10.892;2022-09-01T05:29:07;15.90;99.90
33741;DHT22;20065;48.380;10.892;2022-09-01T05:31:59;15.80;99.90
33741;DHT22;20065;48.380;10.892;2022-09-01T05:34:57;15.80;99.90
33741;DHT22;20065;48.380;10.892;2022-09-01T05:37:44;15.90;99.90
33741;DHT22;20065;48.380;10.892;2022-09-01T05:40:31;15.90;99.90
33741;DHT22;20065;48.380;10.892;2022-09-01T05:43:19;16.00;99.90
33741;DHT22;20065;48.380;10.892;2022-09-01T05:46:07;16.00;99.90
33741;DHT22;20065;48.380;10.892;2022-09-01T05:48:55;16.00;99.90
33741;DHT22;20065;48.380;10.892;2022-09-01T05:51:48;16.10;99.90
33741;DHT22;20065;48.380;10.892;2022-09-01T05:54:35;16.20;99.90
33741;DHT22;20065;48.380;10.892;2022-09-01T05:57:22;16.30;99.90
33741;DHT22;20065;48.380;10.892;2022-09-01T06:00:09;16.20;99.90
33741;DHT22;20065;48.380;10.892;2022-09-01T06:02:58;16.20;99.90
33741;DHT22;20065;48.380;10.892;2022-09-01T06:05:46;16.30;99.90
33741;DHT22;20065;48.380;10.892;2022-09-01T06:08:37;16.30;99.90
33741;DHT22;20065;48.380;10.892;2022-09-01T06:11:24;16.40;99.90
33741;DHT22;20065;48.380;10.892;2022-09-01T06:14:15;16.30;99.90
33741;DHT22;20065;48.380;10.892;2022-09-01T06:17:04;16.30;99.90
33741;DHT22;20065;48.380;10.892;2022-09-01T06:19:53;16.30;99.90
33741;DHT22;20065;48.380;10.892;2022-09-01T06:22:41;16.40;99.90
33741;DHT22;20065;48.380;10.892;2022-09-01T06:25:28;16.60;99.90
33741;DHT22;20065;48.380;10.892;2022-09-01T06:28:16;16.50;99.90
33741;DHT22;20065;48.380;10.892;2022-09-01T06:31:05;16.50;99.90
33741;DHT22;20065;48.380;10.892;2022-09-01T06:33:53;16.40;99.90
33741;DHT22;20065;48.380;10.892;2022-09-01T06:36:40;16.40;99.90
33741;DHT22;20065;48.380;10.892;2022-09-01T06:39:27;16.60;99.90
33741;DHT22;20065;48.380;10.892;2022-09-01T06:42:14;16.50;99.90
33741;DHT22;20065;48.380;10.892;2022-09-01T06:45:10;16.50;99.90
33741;DHT22;20065;48.380;10.892;2022-09-01T06:47:57;16.60;99.90
33741;DHT22;20065;48.380;10.892;2022-09-01T06:50:43;16.70;99.90
33741;DHT22;20065;48.380;10.892;2022-09-01T06:53:31;16.60;99.90
33741;DHT22;20065;48.380;10.892;2022-09-01T06:56:22;16.40;99.90
33741;DHT22;20065;48.380;10.892;2022-09-01T06:59:09;16.20;99.90
33741;DHT22;20065;48.380;10.892;2022-09-01T07:02:02;16.40;99.90
33741;DHT22;20065;48.380;10.892;2022-09-01T07:05:10;16.50;99.90
33741;DHT22;20065;48.380;10.892;2022-09-01T07:07:56;16.30;99.90
33741;DHT22;20065;48.380;10.892;2022-09-01T07:10:55;16.50;99.90
33741;DHT22;20065;48.380;10.892;2022-09-01T07:13:43;16.50;99.90
33741;DHT22;20065;48.380;10.892;2022-09-01T07:16:33;16.50;99.90
33741;DHT22;20065;48.380;10.892;2022-09-01T07:19:24;16.40;99.90
33741;DHT22;20065;48.380;10.892;2022-09-01T07:22:15;16.40;99.90
33741;DHT22;20065;48.380;10.892;2022-09-01T07:25:05;16.40;99.90
33741;DHT22;20065;48.380;10.892;2022-09-01T07:28:04;16.50;99.90
33741;DHT22;20065;48.380;10.892;2022-09-01T07:30:51;16.40;99.90
33741;DHT22;20065;48.380;10.892;2022-09-01T07:33:42;16.50;99.90
33741;DHT22;20065;48.380;10.892;2022-09-01T07:36:35;16.50;99.90
33741;DHT22;20065;48.380;10.892;2022-09-01T07:39:22;16.50;99.90
33741;DHT22;20065;48.380;10.892;2022-09-01T07:42:28;16.50;99.90
33741;DHT22;20065;48.380;10.892;2022-09-01T07:45:23;16.60;99.90
33741;DHT22;20065;48.380;10.892;2022-09-01T07:48:18;16.70;99.90
33741;DHT22;20065;48.380;10.892;2022-09-01T07:51:11;16.70;99.90
33741;DHT22;20065;48.380;10.892;2022-09-01T07:53:58;16.80;99.90
33741;DHT22;20065;48.380;10.892;2022-09-01T07:56:45;16.70;99.90
33741;DHT22;20065;48.380;10.892;2022-09-01T07:59:32;16.70;99.90
33741;DHT22;20065;48.380;10.892;2022-09-01T08:02:41;16.80;99.90
33741;DHT22;20065;48.380;10.892;2022-09-01T08:05:30;16.80;99.90
33741;DHT22;20065;48.380;10.892;2022-09-01T08:08:17;16.90;99.90
33741;DHT22;20065;48.380;10.892;2022-09-01T08:11:04;17.00;99.90
33741;DHT22;20065;48.380;10.892;2022-09-01T08:13:51;17.30;99.90
33741;DHT22;20065;48.380;10.892;2022-09-01T08:16:38;17.40;99.90
33741;DHT22;20065;48.380;10.892;2022-09-01T08:19:25;17.40;99.90
33741;DHT22;20065;48.380;10.892;2022-09-01T08:22:25;17.40;99.90
33741;DHT22;20065;48.380;10.892;2022-09-01T08:25:19;17.50;99.90
33741;DHT22;20065;48.380;10.892;2022-09-01T08:28:05;17.30;99.90
33741;DHT22;20065;48.380;10.892;2022-09-01T08:30:53;17.40;99.90
33741;DHT22;20065;48.380;10.892;2022-09-01T08:33:43;17.50;99.90
33741;DHT22;20065;48.380;10.892;2022-09-01T08:36:31;17.30;99.90
33741;DHT22;20065;48.380;10.892;2022-09-01T08:39:18;17.00;99.90
33741;DHT22;20065;48.380;10.892;2022-09-01T08:45:28;17.10;99.90
33741;DHT22;20065;48.380;10.892;2022-09-01T08:51:34;17.20;99.90
33741;DHT22;20065;48.380;10.892;2022-09-01T08:57:25;17.00;99.90
33741;DHT22;20065;48.380;10.892;2022-09-01T09:00:40;17.20;99.90
33741;DHT22;20065;48.380;10.892;2022-09-01T09:03:58;17.30;99.90
33741;DHT22;20065;48.380;10.892;2022-09-01T09:07:12;17.20;99.90
33741;DHT22;20065;48.380;10.892;2022-09-01T09:10:25;17.30;99.90
33741;DHT22;20065;48.380;10.892;2022-09-01T09:19:35;17.20;99.90
33741;DHT22;20065;48.380;10.892;2022-09-01T09:22:23;17.20;99.90
33741;DHT22;20065;48.380;10.892;2022-09-01T09:25:13;17.30;99.90
33741;DHT22;20065;48.380;10.892;2022-09-01T09:28:02;17.60;99.90
33741;DHT22;20065;48.380;10.892;2022-09-01T09:30:48;18.00;99.90
33741;DHT22;20065;48.380;10.892;2022-09-01T09:33:37;18.10;99.90
33741;DHT22;20065;48.380;10.892;2022-09-01T09:36:31;18.10;99.90
33741;DHT22;20065;48.380;10.892;2022-09-01T09:39:18;18.30;99.90
33741;DHT22;20065;48.380;10.892;2022-09-01T09:42:09;18.30;99.90
33741;DHT22;20065;48.380;10.892;2022-09-01T09:44:56;18.40;99.90
33741;DHT22;20065;48.380;10.892;2022-09-01T09:47:44;18.50;99.90
33741;DHT22;20065;48.380;10.892;2022-09-01T09:50:35;18.30;99.90
33741;DHT22;20065;48.380;10.892;2022-09-01T09:56:18;18.60;99.90
33741;DHT22;20065;48.380;10.892;2022-09-01T09:59:21;18.60;99.90
33741;DHT22;20065;48.380;10.892;2022-09-01T10:02:24;18.60;99.90
33741;DHT22;20065;48.380;10.892;2022-09-01T10:14:16;18.90;99.90
33741;DHT22;20065;48.380;10.892;2022-09-01T10:17:11;18.90;99.90
33741;DHT22;20065;48.380;10.892;2022-09-01T10:20:21;18.90;99.90
33741;DHT22;20065;48.380;10.892;2022-09-01T10:23:06;19.00;99.90
33741;DHT22;20065;48.380;10.892;2022-09-01T10:25:55;19.20;99.90
33741;DHT22;20065;48.380;10.892;2022-09-01T10:31:36;19.50;99.90
33741;DHT22;20065;48.380;10.892;2022-09-01T10:34:24;19.20;99.90
33741;DHT22;20065;48.380;10.892;2022-09-01T10:37:10;19.40;99.90
33741;DHT22;20065;48.380;10.892;2022-09-01T10:43:22;20.00;99.90
33741;DHT22;20065;48.380;10.892;2022-09-01T10:52:56;21.00;99.90
33741;DHT22;20065;48.380;10.892;2022-09-01T10:55:46;21.70;99.90
33741;DHT22;20065;48.380;10.892;2022-09-01T11:13:30;20.00;99.90
33741;DHT22;20065;48.380;10.892;2022-09-01T11:16:37;19.90;99.90
33741;DHT22;20065;48.380;10.892;2022-09-01T11:22:32;19.70;99.90
33741;DHT22;20065;48.380;10.892;2022-09-01T11:25:34;19.70;99.90
33741;DHT22;20065;48.380;10.892;2022-09-01T11:31:31;19.80;99.90
33741;DHT22;20065;48.380;10.892;2022-09-01T11:34:19;19.50;99.90
33741;DHT22;20065;48.380;10.892;2022-09-01T11:37:11;19.40;99.90
33741;DHT22;20065;48.380;10.892;2022-09-01T11:40:02;19.50;99.90
33741;DHT22;20065;48.380;10.892;2022-09-01T11:42:49;19.70;99.90
33741;DHT22;20065;48.380;10.892;2022-09-01T11:46:10;19.80;99.90
33741;DHT22;20065;48.380;10.892;2022-09-01T11:49:02;20.00;99.90
33741;DHT22;20065;48.380;10.892;2022-09-01T11:51:50;20.10;99.90
33741;DHT22;20065;48.380;10.892;2022-09-01T11:54:39;20.50;99.90
33741;DHT22;20065;48.380;10.892;2022-09-01T11:57:34;21.00;99.90
33741;DHT22;20065;48.380;10.892;2022-09-01T12:00:30;21.20;99.90
33741;DHT22;20065;48.380;10.892;2022-09-01T12:03:24;21.40;99.90
33741;DHT22;20065;48.380;10.892;2022-09-01T12:06:17;21.60;99.90
33741;DHT22;20065;48.380;10.892;2022-09-01T12:09:04;21.60;99.90
33741;DHT22;20065;48.380;10.892;2022-09-01T12:11:50;21.60;99.90
33741;DHT22;20065;48.380;10.892;2022-09-01T12:14:37;21.70;99.90
33741;DHT22;20065;48.380;10.892;2022-09-01T12:17:23;21.30;99.90
33741;DHT22;20065;48.380;10.892;2022-09-01T12:20:30;21.30;99.90
33741;DHT22;20065;48.380;10.892;2022-09-01T12:23:35;21.80;99.90
33741;DHT22;20065;48.380;10.892;2022-09-01T12:26:27;21.60;99.90
33741;DHT22;20065;48.380;10.892;2022-09-01T12:29:15;21.50;99.90
33741;DHT22;20065;48.380;10.892;2022-09-01T12:32:03;21.70;99.90
33741;DHT22;20065;48.380;10.892;2022-09-01T12:35:04;22.10;99.90
33741;DHT22;20065;48.380;10.892;2022-09-01T12:41:34;22.90;99.90
33741;DHT22;20065;48.380;10.892;2022-09-01T12:53:15;22.90;99.90
33741;DHT22;20065;48.380;10.892;2022-09-01T12:56:28;23.10;99.90
33741;DHT22;20065;48.380;10.892;2022-09-01T12:59:21;22.70;99.90
33741;DHT22;20065;48.380;10.892;2022-09-01T13:02:37;22.20;99.90
33741;DHT22;20065;48.380;10.892;2022-09-01T13:08:18;22.30;99.90
33741;DHT22;20065;48.380;10.892;2022-09-01T13:11:11;22.00;99.90
33741;DHT22;20065;48.380;10.892;2022-09-01T13:13:59;21.80;99.90
33741;DHT22;20065;48.380;10.892;2022-09-01T13:16:46;21.60;99.90
33741;DHT22;20065;48.380;10.892;2022-09-01T13:19:33;21.70;99.90
33741;DHT22;20065;48.380;10.892;2022-09-01T13:22:19;21.30;99.90
33741;DHT22;20065;48.380;10.892;2022-09-01T13:25:05;21.30;99.90
33741;DHT22;20065;48.380;10.892;2022-09-01T13:27:51;21.60;99.90
33741;DHT22;20065;48.380;10.892;2022-09-01T13:30:40;21.20;99.90
33741;DHT22;20065;48.380;10.892;2022-09-01T13:33:27;21.10;99.90
33741;DHT22;20065;48.380;10.892;2022-09-01T13:36:13;21.00;99.90
33741;DHT22;20065;48.380;10.892;2022-09-01T13:38:59;20.80;99.90
33741;DHT22;20065;48.380;10.892;2022-09-01T13:41:46;20.80;99.90
33741;DHT22;20065;48.380;10.892;2022-09-01T13:44:33;21.10;99.90
33741;DHT22;20065;48.380;10.892;2022-09-01T13:47:19;21.10;99.90
33741;DHT22;20065;48.380;10.892;2022-09-01T13:50:06;21.20;99.90
33741;DHT22;20065;48.380;10.892;2022-09-01T13:52:55;21.90;99.90
33741;DHT22;20065;48.380;10.892;2022-09-01T13:55:41;21.40;99.90
33741;DHT22;20065;48.380;10.892;2022-09-01T13:58:28;21.40;99.90
33741;DHT22;20065;48.380;10.892;2022-09-01T14:01:14;21.40;99.90
33741;DHT22;20065;48.380;10.892;2022-09-01T14:04:01;21.30;99.90
33741;DHT22;20065;48.380;10.892;2022-09-01T14:06:51;21.20;99.90
33741;DHT22;20065;48.380;10.892;2022-09-01T14:09:37;21.10;99.90
33741;DHT22;20065;48.380;10.892;2022-09-01T14:12:23;21.00;99.90
33741;DHT22;20065;48.380;10.892;2022-09-01T14:15:10;21.00;99.90
33741;DHT22;20065;48.380;10.892;2022-09-01T14:17:56;20.90;99.90
33741;DHT22;20065;48.380;10.892;2022-09-01T14:20:46;20.80;99.90
33741;DHT22;20065;48.380;10.892;2022-09-01T14:23:32;20.80;99.90
33741;DHT22;20065;48.380;10.892;2022-09-01T14:26:18;20.90;99.90
33741;DHT22;20065;48.380;10.892;2022-09-01T14:29:05;20.90;99.90
33741;DHT22;20065;48.380;10.892;2022-09-01T14:31:51;20.90;99.90
33741;DHT22;20065;48.380;10.892;2022-09-01T14:34:37;20.80;99.90
33741;DHT22;20065;48.380;10.892;2022-09-01T14:37:24;20.80;99.90
33741;DHT22;20065;48.380;10.892;2022-09-01T14:40:13;20.60;99.90
33741;DHT22;20065;48.380;10.892;2022-09-01T14:43:00;20.50;99.90
33741;DHT22;20065;48.380;10.892;2022-09-01T14:45:46;20.60;99.90
33741;DHT22;20065;48.380;10.892;2022-09-01T14:48:34;20.70;99.90
33741;DHT22;20065;48.380;10.892;2022-09-01T14:51:26;20.80;99.90
33741;DHT22;20065;48.380;10.892;2022-09-01T14:54:12;21.00;99.90
33741;DHT22;20065;48.380;10.892;2022-09-01T14:57:00;21.10;99.90
33741;DHT22;20065;48.380;10.892;2022-09-01T14:59:46;21.10;99.90
33741;DHT22;20065;48.380;10.892;2022-09-01T15:02:33;20.80;99.90
33741;DHT22;20065;48.380;10.892;2022-09-01T15:05:20;20.70;99.90
33741;DHT22;20065;48.380;10.892;2022-09-01T15:08:08;20.40;99.90
33741;DHT22;20065;48.380;10.892;2022-09-01T15:10:56;20.30;99.90
33741;DHT22;20065;48.380;10.892;2022-09-01T15:13:43;20.40;99.90
33741;DHT22;20065;48.380;10.892;2022-09-01T15:16:30;20.50;99.90
33741;DHT22;20065;48.380;10.892;2022-09-01T15:19:27;20.40;99.90
33741;DHT22;20065;48.380;10.892;2022-09-01T15:22:20;20.50;99.90
33741;DHT22;20065;48.380;10.892;2022-09-01T15:25:10;20.50;99.90
33741;DHT22;20065;48.380;10.892;2022-09-01T15:27:56;20.50;99.90
33741;DHT22;20065;48.380;10.892;2022-09-01T15:30:43;20.60;99.90
33741;DHT22;20065;48.380;10.892;2022-09-01T15:33:30;20.50;99.90
33741;DHT22;20065;48.380;10.892;2022-09-01T15:36:18;20.70;99.90
33741;DHT22;20065;48.380;10.892;2022-09-01T15:39:05;20.60;99.90
33741;DHT22;20065;48.380;10.892;2022-09-01T15:41:53;20.60;99.90
33741;DHT22;20065;48.380;10.892;2022-09-01T15:44:39;20.60;99.90
33741;DHT22;20065;48.380;10.892;2022-09-01T15:47:25;20.60;99.90
33741;DHT22;20065;48.380;10.892;2022-09-01T15:50:13;20.50;99.90
33741;DHT22;20065;48.380;10.892;2022-09-01T15:53:05;20.50;99.90
33741;DHT22;20065;48.380;10.892;2022-09-01T15:55:53;20.50;99.90
33741;DHT22;20065;48.380;10.892;2022-09-01T15:58:39;20.60;99.90
33741;DHT22;20065;48.380;10.892;2022-09-01T16:01:30;20.60;99.90
33741;DHT22;20065;48.380;10.892;2022-09-01T16:04:17;20.50;99.90
33741;DHT22;20065;48.380;10.892;2022-09-01T16:07:03;20.50;99.90
33741;DHT22;20065;48.380;10.892;2022-09-01T16:09:49;20.50;99.90
33741;DHT22;20065;48.380;10.892;2022-09-01T16:12:43;20.40;99.90
33741;DHT22;20065;48.380;10.892;2022-09-01T16:15:42;20.40;99.90
33741;DHT22;20065;48.380;10.892;2022-09-01T16:18:32;20.30;99.90
33741;DHT22;20065;48.380;10.892;2022-09-01T16:24:18;20.30;99.90
33741;DHT22;20065;48.380;10.892;2022-09-01T16:27:07;20.30;99.90
33741;DHT22;20065;48.380;10.892;2022-09-01T16:29:59;20.20;99.90
33741;DHT22;20065;48.380;10.892;2022-09-01T16:32:48;20.10;99.90
33741;DHT22;20065;48.380;10.892;2022-09-01T16:35:47;20.10;99.90
33741;DHT22;20065;48.380;10.892;2022-09-01T16:39:02;20.00;99.90
33741;DHT22;20065;48.380;10.892;2022-09-01T16:42:03;20.00;99.90
33741;DHT22;20065;48.380;10.892;2022-09-01T16:45:02;19.90;99.90
33741;DHT22;20065;48.380;10.892;2022-09-01T16:51:18;19.90;99.90
33741;DHT22;20065;48.380;10.892;2022-09-01T17:00:23;19.80;99.90
33741;DHT22;20065;48.380;10.892;2022-09-01T17:03:19;19.70;99.90
33741;DHT22;20065;48.380;10.892;2022-09-01T17:09:30;19.60;99.90
33741;DHT22;20065;48.380;10.892;2022-09-01T17:12:41;19.60;99.90
33741;DHT22;20065;48.380;10.892;2022-09-01T17:15:32;19.50;99.90
33741;DHT22;20065;48.380;10.892;2022-09-01T17:18:39;19.40;99.90
33741;DHT22;20065;48.380;10.892;2022-09-01T17:21:39;19.50;99.90
33741;DHT22;20065;48.380;10.892;2022-09-01T17:24:43;19.50;99.90
33741;DHT22;20065;48.380;10.892;2022-09-01T17:27:51;19.40;99.90
33741;DHT22;20065;48.380;10.892;2022-09-01T17:31:24;19.40;99.90
33741;DHT22;20065;48.380;10.892;2022-09-01T17:34:08;19.30;99.90
33741;DHT22;20065;48.380;10.892;2022-09-01T17:43:00;19.10;99.90
33741;DHT22;20065;48.380;10.892;2022-09-01T17:46:14;19.10;99.90
33741;DHT22;20065;48.380;10.892;2022-09-01T17:49:08;19.00;99.90
33741;DHT22;20065;48.380;10.892;2022-09-01T17:52:06;19.00;99.90
33741;DHT22;20065;48.380;10.892;2022-09-01T18:01:45;18.90;99.90
33741;DHT22;20065;48.380;10.892;2022-09-01T18:07:55;18.70;99.90
33741;DHT22;20065;48.380;10.892;2022-09-01T18:10:46;18.60;99.90
33741;DHT22;20065;48.380;10.892;2022-09-01T18:13:41;18.50;99.90
33741;DHT22;20065;48.380;10.892;2022-09-01T18:19:38;18.50;99.90
33741;DHT22;20065;48.380;10.892;2022-09-01T18:22:46;18.50;99.90
33741;DHT22;20065;48.380;10.892;2022-09-01T18:25:48;18.50;99.90
33741;DHT22;20065;48.380;10.892;2022-09-01T18:28:36;18.40;99.90
33741;DHT22;20065;48.380;10.892;2022-09-01T18:41:24;18.10;99.90
33741;DHT22;20065;48.380;10.892;2022-09-01T18:44:37;18.10;99.90
33741;DHT22;20065;48.380;10.892;2022-09-01T18:47:30;18.00;99.90
33741;DHT22;20065;48.380;10.892;2022-09-01T19:08:46;17.80;99.90
33741;DHT22;20065;48.380;10.892;2022-09-01T19:20:59;17.50;99.90
33741;DHT22;20065;48.380;10.892;2022-09-01T19:24:09;17.50;99.90
33741;DHT22;20065;48.380;10.892;2022-09-01T19:27:00;17.50;99.90
33741;DHT22;20065;48.380;10.892;2022-09-01T19:29:51;17.50;99.90
33741;DHT22;20065;48.380;10.892;2022-09-01T19:32:38;17.50;99.90
33741;DHT22;20065;48.380;10.892;2022-09-01T19:35:25;17.50;99.90
33741;DHT22;20065;48.380;10.892;2022-09-01T19:38:20;17.50;99.90
33741;DHT22;20065;48.380;10.892;2022-09-01T19:44:25;17.30;99.90
33741;DHT22;20065;48.380;10.892;2022-09-01T19:50:34;17.30;99.90
33741;DHT22;20065;48.380;10.892;2022-09-01T19:56:45;17.00;99.90
33741;DHT22;20065;48.380;10.892;2022-09-01T19:59:48;16.90;99.90
33741;DHT22;20065;48.380;10.892;2022-09-01T20:02:40;16.90;99.90
33741;DHT22;20065;48.380;10.892;2022-09-01T20:08:32;16.80;99.90
33741;DHT22;20065;48.380;10.892;2022-09-01T20:20:26;16.70;99.90
33741;DHT22;20065;48.380;10.892;2022-09-01T20:23:42;16.70;99.90
33741;DHT22;20065;48.380;10.892;2022-09-01T20:29:57;16.80;99.90
33741;DHT22;20065;48.380;10.892;2022-09-01T20:35:55;16.60;99.90
33741;DHT22;20065;48.380;10.892;2022-09-01T20:39:01;16.60;99.90
33741;DHT22;20065;48.380;10.892;2022-09-01T20:42:20;16.60;99.90